createdAt,value
2022-11-06T00:01:14.060Z,4.35
2022-11-06T00:04:16.781Z,4.39
2022-11-06T00:07:19.807Z,4.33
2022-11-06T00:10:22.481Z,4.45
2022-11-06T00:13:25.127Z,4.49
2022-11-06T00:16:27.773Z,4.39
2022-11-06T00:19:30.480Z,4.32
2022-11-06T00:22:35.279Z,4.25
2022-11-06T00:25:41.011Z,4.09
2022-11-06T00:28:44.079Z,3.89
2022-11-06T00:31:46.707Z,3.83
2022-11-06T00:34:49.682Z,3.88
2022-11-06T00:37:54.491Z,4.00
2022-11-06T00:40:57.241Z,4.05
2022-11-06T00:44:01.003Z,4.07
2022-11-06T00:47:03.695Z,4.08
2022-11-06T00:50:06.859Z,4.16
2022-11-06T00:53:10.869Z,4.15
2022-11-06T00:56:15.721Z,4.11
2022-11-06T00:59:18.457Z,4.08
2022-11-06T01:02:21.350Z,4.06
2022-11-06T01:05:24.039Z,4.09
2022-11-06T01:08:28.089Z,4.15
2022-11-06T01:11:52.401Z,4.09
2022-11-06T01:14:55.709Z,4.07
2022-11-06T01:17:58.504Z,4.05
2022-11-06T01:21:04.666Z,4.04
2022-11-06T01:24:11.129Z,4.06
2022-11-06T01:27:26.436Z,4.02
2022-11-06T01:30:29.784Z,4.08
2022-11-06T01:33:32.508Z,4.01
2022-11-06T01:36:35.280Z,3.95
2022-11-06T01:39:39.311Z,3.93
2022-11-06T01:42:42.307Z,3.94
2022-11-06T01:45:46.128Z,3.93
2022-11-06T01:48:52.859Z,3.93
2022-11-06T01:51:57.453Z,3.87
2022-11-06T01:55:07.721Z,3.83
2022-11-06T01:58:12.210Z,3.80
2022-11-06T02:01:15.051Z,3.84
2022-11-06T02:04:19.230Z,3.74
2022-11-06T02:07:22.227Z,3.73
2022-11-06T02:10:26.352Z,3.87
2022-11-06T02:13:34.876Z,3.77
2022-11-06T02:16:41.363Z,3.81
2022-11-06T02:19:52.417Z,3.80
2022-11-06T02:23:04.080Z,3.85
2022-11-06T02:26:14.460Z,3.86
2022-11-06T02:29:21.341Z,3.90
2022-11-06T02:32:27.060Z,3.80
2022-11-06T02:35:31.785Z,3.80
2022-11-06T02:38:36.248Z,3.76
2022-11-06T02:41:41.798Z,3.75
2022-11-06T02:44:47.229Z,3.76
2022-11-06T02:47:52.029Z,3.70
2022-11-06T02:50:55.990Z,3.66
2022-11-06T02:54:01.230Z,3.76
2022-11-06T02:57:06.307Z,3.69
2022-11-06T03:00:12.292Z,3.74
2022-11-06T03:03:18.456Z,3.70
2022-11-06T03:06:24.105Z,3.51
2022-11-06T03:09:29.798Z,3.47
2022-11-06T03:12:33.998Z,3.49
2022-11-06T03:15:40.247Z,3.50
2022-11-06T03:18:44.513Z,3.56
2022-11-06T03:21:54.076Z,3.54
2022-11-06T03:25:00.143Z,3.59
2022-11-06T03:28:06.663Z,3.37
2022-11-06T03:31:14.290Z,3.38
2022-11-06T03:34:20.141Z,3.46
2022-11-06T03:37:26.211Z,3.41
2022-11-06T03:40:32.060Z,3.35
2022-11-06T03:43:36.737Z,3.37
2022-11-06T03:46:43.983Z,3.34
2022-11-06T03:49:50.774Z,3.38
2022-11-06T03:52:56.763Z,3.32
2022-11-06T03:56:03.527Z,3.32
2022-11-06T03:59:08.101Z,3.39
2022-11-06T04:02:13.906Z,3.37
2022-11-06T04:05:18.692Z,3.34
2022-11-06T04:08:39.888Z,3.44
2022-11-06T04:12:01.117Z,3.44
2022-11-06T04:15:04.022Z,3.38
2022-11-06T04:18:14.846Z,3.40
2022-11-06T04:21:26.175Z,3.42
2022-11-06T04:24:52.834Z,3.33
2022-11-06T04:28:04.289Z,3.31
2022-11-06T04:31:11.006Z,3.26
2022-11-06T04:34:18.991Z,3.08
2022-11-06T04:37:23.520Z,3.10
2022-11-06T04:40:28.600Z,3.12
2022-11-06T04:43:34.667Z,3.17
2022-11-06T04:46:39.185Z,3.12
2022-11-06T04:49:43.911Z,3.08
2022-11-06T04:52:47.342Z,3.05
2022-11-06T04:55:51.415Z,3.08
2022-11-06T04:58:54.198Z,3.08
2022-11-06T05:01:57.096Z,3.06
2022-11-06T05:05:01.130Z,2.98
2022-11-06T05:08:03.799Z,2.96
2022-11-06T05:11:06.902Z,3.03
2022-11-06T05:14:09.652Z,2.94
2022-11-06T05:17:12.339Z,2.96
2022-11-06T05:20:16.538Z,2.91
2022-11-06T05:23:18.191Z,2.93
2022-11-06T05:26:20.875Z,2.91
2022-11-06T05:29:23.572Z,2.90
2022-11-06T05:32:26.223Z,2.80
2022-11-06T05:35:30.271Z,2.82
2022-11-06T05:38:33.114Z,2.92
2022-11-06T05:41:35.781Z,2.89
2022-11-06T05:44:38.833Z,2.91
2022-11-06T05:47:41.784Z,2.96
2022-11-06T05:50:45.813Z,2.93
2022-11-06T05:53:51.047Z,2.89
2022-11-06T05:56:54.088Z,2.96
2022-11-06T05:59:56.759Z,3.01
2022-11-06T06:02:59.519Z,3.02
2022-11-06T06:06:03.634Z,2.90
2022-11-06T06:09:06.331Z,2.91
2022-11-06T06:12:11.588Z,2.82
2022-11-06T06:15:15.140Z,2.85
2022-11-06T06:18:17.862Z,2.89
2022-11-06T06:21:21.870Z,2.84
2022-11-06T06:24:24.626Z,2.88
2022-11-06T06:27:27.623Z,2.87
2022-11-06T06:30:30.437Z,2.87
2022-11-06T06:33:33.187Z,2.87
2022-11-06T06:36:38.485Z,2.94
2022-11-06T06:39:41.378Z,2.99
2022-11-06T06:42:44.257Z,3.02
2022-11-06T06:45:47.130Z,3.03
2022-11-06T06:48:50.129Z,3.06
2022-11-06T06:51:58.084Z,3.10
2022-11-06T06:55:03.972Z,3.17
2022-11-06T06:58:06.893Z,3.23
2022-11-06T07:01:11.294Z,3.28
2022-11-06T07:04:14.262Z,3.34
2022-11-06T07:07:18.482Z,3.37
2022-11-06T07:10:21.272Z,3.47
2022-11-06T07:13:24.007Z,3.80
2022-11-06T07:16:27.544Z,3.67
2022-11-06T07:19:30.332Z,3.70
2022-11-06T07:22:37.500Z,3.72
2022-11-06T07:25:40.672Z,3.74
2022-11-06T07:28:43.377Z,3.83
2022-11-06T07:31:46.604Z,3.92
2022-11-06T07:34:49.377Z,3.97
2022-11-06T07:37:53.414Z,4.05
2022-11-06T07:40:56.203Z,4.10
2022-11-06T07:43:58.968Z,4.18
2022-11-06T07:47:01.625Z,4.25
2022-11-06T07:50:04.675Z,4.34
2022-11-06T07:53:08.727Z,4.47
2022-11-06T07:56:11.414Z,4.60
2022-11-06T07:59:14.095Z,4.70
2022-11-06T08:02:17.508Z,4.89
2022-11-06T08:05:20.403Z,5.04
2022-11-06T08:08:24.569Z,5.11
2022-11-06T08:11:27.679Z,5.26
2022-11-06T08:14:30.615Z,5.32
2022-11-06T08:17:33.409Z,5.59
2022-11-06T08:20:36.348Z,5.52
2022-11-06T08:23:40.388Z,5.70
2022-11-06T08:26:43.018Z,5.95
2022-11-06T08:29:45.701Z,6.03
2022-11-06T08:32:48.420Z,6.15
2022-11-06T08:35:51.088Z,6.26
2022-11-06T08:38:55.096Z,6.44
2022-11-06T08:41:57.829Z,6.55
2022-11-06T08:45:00.491Z,6.68
2022-11-06T08:48:03.828Z,6.74
2022-11-06T08:51:06.743Z,6.79
2022-11-06T08:54:11.103Z,6.89
2022-11-06T08:57:13.892Z,7.07
2022-11-06T09:00:17.177Z,7.03
2022-11-06T09:03:20.101Z,7.23
2022-11-06T09:06:22.783Z,7.29
2022-11-06T09:09:31.969Z,7.23
2022-11-06T09:12:34.691Z,7.48
2022-11-06T09:15:37.393Z,7.46
2022-11-06T09:18:40.076Z,7.60
2022-11-06T09:21:42.743Z,7.71
2022-11-06T09:25:04.137Z,7.83
2022-11-06T09:28:07.447Z,8.00
2022-11-06T09:31:10.500Z,8.10
2022-11-06T09:34:13.326Z,8.15
2022-11-06T09:37:16.042Z,8.24
2022-11-06T09:40:21.866Z,8.34
2022-11-06T09:43:58.212Z,8.54
2022-11-06T09:46:52.176Z,8.62
2022-11-06T09:49:56.168Z,8.80
2022-11-06T09:53:05.898Z,8.75
2022-11-06T09:56:13.814Z,8.89
2022-11-06T09:59:18.778Z,8.95
2022-11-06T10:02:27.495Z,9.11
2022-11-06T10:05:32.463Z,9.15
2022-11-06T10:08:35.499Z,9.15
2022-11-06T10:11:52.022Z,9.26
2022-11-06T10:14:59.873Z,9.44
2022-11-06T10:18:06.971Z,9.47
2022-11-06T10:21:11.551Z,9.53
2022-11-06T10:24:19.078Z,9.60
2022-11-06T10:27:27.165Z,9.65
2022-11-06T10:30:34.765Z,9.60
2022-11-06T10:33:44.904Z,9.79
2022-11-06T10:36:50.400Z,9.86
2022-11-06T10:39:54.805Z,9.86
2022-11-06T10:43:03.486Z,10.04
2022-11-06T10:46:12.936Z,9.90
2022-11-06T10:49:21.586Z,10.04
2022-11-06T10:52:35.392Z,10.11
2022-11-06T10:55:47.874Z,10.11
2022-11-06T10:58:51.936Z,10.25
2022-11-06T11:01:55.156Z,10.33
2022-11-06T11:04:58.603Z,10.45
2022-11-06T11:08:01.545Z,10.35
2022-11-06T11:11:05.751Z,10.47
2022-11-06T11:14:22.847Z,10.52
2022-11-06T11:17:25.544Z,10.52
2022-11-06T11:20:32.298Z,10.44
2022-11-06T11:23:34.952Z,10.34
2022-11-06T11:26:39.823Z,10.46
2022-11-06T11:29:48.056Z,10.58
2022-11-06T11:32:50.957Z,10.52
2022-11-06T11:35:55.238Z,10.51
2022-11-06T11:38:58.079Z,10.43
2022-11-06T11:42:15.737Z,10.52
2022-11-06T11:45:21.405Z,10.57
2022-11-06T11:48:25.070Z,10.52
2022-11-06T11:51:32.310Z,10.53
2022-11-06T11:54:36.241Z,10.48
2022-11-06T11:57:44.107Z,10.52
2022-11-06T12:00:53.252Z,10.58
2022-11-06T12:03:55.969Z,10.63
2022-11-06T12:07:01.266Z,10.67
2022-11-06T12:10:16.055Z,10.74
2022-11-06T12:13:20.644Z,10.88
2022-11-06T12:16:24.724Z,10.93
2022-11-06T12:19:29.898Z,10.80
2022-11-06T12:22:35.430Z,10.62
2022-11-06T12:25:41.232Z,10.43
2022-11-06T12:28:45.215Z,10.44
2022-11-06T12:31:52.200Z,10.44
2022-11-06T12:35:00.769Z,10.30
2022-11-06T12:38:08.255Z,10.38
2022-11-06T12:41:13.555Z,10.38
2022-11-06T12:44:17.325Z,10.43
2022-11-06T12:47:27.702Z,10.41
2022-11-06T12:50:37.943Z,10.30
2022-11-06T12:53:49.148Z,10.52
2022-11-06T12:56:57.056Z,10.45
2022-11-06T13:00:04.638Z,10.51
2022-11-06T13:03:20.420Z,10.51
2022-11-06T13:06:27.336Z,10.46
2022-11-06T13:09:31.983Z,10.54
2022-11-06T13:12:39.020Z,10.51
2022-11-06T13:15:46.710Z,10.50
2022-11-06T13:18:54.018Z,10.51
2022-11-06T13:22:06.034Z,10.46
2022-11-06T13:25:13.532Z,10.48
2022-11-06T13:28:26.433Z,10.46
2022-11-06T13:31:31.613Z,10.46
2022-11-06T13:34:37.203Z,10.49
2022-11-06T13:37:40.752Z,10.48
2022-11-06T13:40:44.448Z,10.28
2022-11-06T13:43:50.277Z,10.16
2022-11-06T13:46:57.950Z,10.45
2022-11-06T13:50:05.623Z,10.47
2022-11-06T13:53:13.663Z,10.44
2022-11-06T13:56:24.259Z,10.53
2022-11-06T13:59:44.785Z,10.59
2022-11-06T14:03:08.252Z,10.47
2022-11-06T14:06:17.075Z,10.42
2022-11-06T14:09:21.324Z,10.30
2022-11-06T14:12:24.291Z,10.56
2022-11-06T14:15:29.787Z,10.50
2022-11-06T14:18:32.901Z,10.57
2022-11-06T14:21:48.079Z,10.61
2022-11-06T14:24:50.780Z,10.51
2022-11-06T14:28:07.443Z,10.49
2022-11-06T14:31:12.709Z,10.29
2022-11-06T14:34:27.912Z,10.46
2022-11-06T14:37:47.598Z,10.41
2022-11-06T14:40:50.679Z,10.25
2022-11-06T14:43:55.585Z,10.22
2022-11-06T14:47:00.009Z,10.10
2022-11-06T14:50:04.699Z,9.97
2022-11-06T14:53:19.421Z,9.81
2022-11-06T14:56:23.106Z,9.71
2022-11-06T14:59:30.778Z,9.57
2022-11-06T15:02:35.144Z,9.46
2022-11-06T15:05:42.336Z,9.35
2022-11-06T15:08:58.024Z,9.24
2022-11-06T15:12:01.609Z,9.08
2022-11-06T15:15:09.655Z,9.11
2022-11-06T15:18:13.871Z,9.00
2022-11-06T15:21:21.962Z,8.99
2022-11-06T15:24:29.034Z,8.88
2022-11-06T15:27:33.407Z,8.87
2022-11-06T15:30:41.896Z,8.82
2022-11-06T15:33:55.361Z,8.79
2022-11-06T15:37:04.673Z,8.65
2022-11-06T15:40:22.699Z,8.50
2022-11-06T15:43:27.394Z,8.50
2022-11-06T15:46:30.810Z,8.42
2022-11-06T15:49:33.542Z,8.43
2022-11-06T15:52:36.289Z,8.27
2022-11-06T15:55:41.804Z,8.15
2022-11-06T15:58:44.603Z,8.10
2022-11-06T16:01:48.492Z,8.11
2022-11-06T16:04:51.386Z,8.01
2022-11-06T16:07:54.305Z,7.89
2022-11-06T16:10:59.262Z,7.84
2022-11-06T16:14:02.230Z,7.81
2022-11-06T16:17:10.063Z,7.76
2022-11-06T16:20:14.848Z,7.70
2022-11-06T16:23:20.170Z,7.63
2022-11-06T16:26:25.713Z,7.60
2022-11-06T16:29:29.913Z,7.62
2022-11-06T16:32:38.083Z,7.51
2022-11-06T16:35:42.548Z,7.40
2022-11-06T16:38:46.482Z,7.29
2022-11-06T16:42:04.416Z,7.34
2022-11-06T16:45:17.078Z,7.33
2022-11-06T16:48:45.545Z,7.28
2022-11-06T16:51:48.300Z,7.26
2022-11-06T16:54:51.708Z,7.26
2022-11-06T16:57:57.290Z,7.28
2022-11-06T17:01:01.711Z,7.28
2022-11-06T17:04:04.692Z,7.29
2022-11-06T17:07:07.567Z,7.30
2022-11-06T17:10:26.765Z,7.28
2022-11-06T17:13:33.147Z,7.24
2022-11-06T17:16:45.590Z,7.23
2022-11-06T17:19:48.368Z,7.26
2022-11-06T17:22:51.003Z,7.32
2022-11-06T17:25:54.994Z,7.27
2022-11-06T17:28:59.576Z,7.23
2022-11-06T17:32:02.213Z,7.42
2022-11-06T17:35:05.225Z,7.38
2022-11-06T17:38:07.956Z,7.33
2022-11-06T17:41:10.736Z,7.42
2022-11-06T17:44:15.764Z,7.32
2022-11-06T17:47:18.604Z,7.35
2022-11-06T17:50:21.331Z,7.29
2022-11-06T17:53:24.024Z,7.28
2022-11-06T17:56:26.884Z,7.19
2022-11-06T17:59:31.229Z,7.25
2022-11-06T18:02:58.980Z,7.29
2022-11-06T18:05:56.829Z,7.27
2022-11-06T18:09:00.056Z,7.34
2022-11-06T18:12:06.800Z,7.33
2022-11-06T18:15:11.274Z,7.35
2022-11-06T18:18:14.289Z,7.36
2022-11-06T18:21:17.507Z,7.29
2022-11-06T18:24:20.303Z,7.38
2022-11-06T18:27:23.072Z,7.37
2022-11-06T18:30:27.253Z,7.44
2022-11-06T18:33:30.356Z,7.41
2022-11-06T18:36:33.334Z,7.27
2022-11-06T18:39:36.040Z,7.33
2022-11-06T18:42:38.689Z,7.28
2022-11-06T18:45:42.786Z,7.28
2022-11-06T18:48:45.757Z,7.30
2022-11-06T18:51:48.464Z,7.23
2022-11-06T18:54:51.271Z,7.28
2022-11-06T18:57:54.201Z,7.30
2022-11-06T19:01:01.815Z,7.33
2022-11-06T19:04:04.972Z,7.28
2022-11-06T19:07:07.724Z,7.11
2022-11-06T19:10:12.770Z,7.18
2022-11-06T19:13:15.611Z,7.16
2022-11-06T19:16:20.436Z,7.06
2022-11-06T19:19:25.604Z,6.95
2022-11-06T19:22:29.502Z,7.02
2022-11-06T19:25:32.301Z,6.88
2022-11-06T19:28:36.092Z,6.68
2022-11-06T19:31:40.234Z,6.80
2022-11-06T19:34:42.905Z,6.94
2022-11-06T19:37:45.538Z,6.95
2022-11-06T19:40:53.822Z,6.85
2022-11-06T19:43:56.585Z,6.81
2022-11-06T19:47:00.640Z,6.64
2022-11-06T19:50:03.250Z,6.69
2022-11-06T19:53:05.895Z,6.65
2022-11-06T19:56:09.583Z,6.55
2022-11-06T19:59:13.184Z,6.59
2022-11-06T20:02:17.468Z,6.68
2022-11-06T20:05:20.302Z,6.59
2022-11-06T20:08:23.190Z,6.65
2022-11-06T20:11:25.866Z,6.70
2022-11-06T20:14:28.518Z,6.71
2022-11-06T20:17:32.584Z,6.78
2022-11-06T20:20:36.362Z,6.79
2022-11-06T20:23:39.788Z,6.94
2022-11-06T20:26:42.479Z,7.12
2022-11-06T20:29:45.651Z,7.17
2022-11-06T20:32:49.768Z,7.30
2022-11-06T20:35:52.863Z,7.39
2022-11-06T20:38:56.440Z,7.43
2022-11-06T20:41:59.462Z,7.53
2022-11-06T20:45:02.528Z,7.60
2022-11-06T20:48:07.119Z,7.60
2022-11-06T20:51:12.576Z,7.59
2022-11-06T20:54:16.687Z,7.58
2022-11-06T20:57:19.364Z,7.57
2022-11-06T21:00:22.910Z,7.54
2022-11-06T21:03:27.306Z,7.77
2022-11-06T21:06:31.162Z,7.75
2022-11-06T21:09:33.802Z,7.79
2022-11-06T21:12:36.491Z,7.77
2022-11-06T21:15:39.526Z,7.81
2022-11-06T21:18:43.812Z,8.02
2022-11-06T21:21:46.448Z,8.19
